sensor_id;sensor_type;location;lat;lon;timestamp;temperature;humidity
51867;DHT22;52862;52.504;13.480;2022-12-28T00:01:43;4.70;99.90
51867;DHT22;52862;52.504;13.480;2022-12-28T00:04:13;4.70;99.90
51867;DHT22;52862;52.504;13.480;2022-12-28T00:06:39;4.70;99.90
51867;DHT22;52862;52.504;13.480;2022-12-28T00:09:08;4.70;99.90
51867;DHT22;52862;52.504;13.480;2022-12-28T00:11:36;4.80;99.90
51867;DHT22;52862;52.504;13.480;2022-12-28T00:14:04;4.80;99.90
51867;DHT22;52862;52.504;13.480;2022-12-28T00:16:32;4.50;99.90
51867;DHT22;52862;52.504;13.480;2022-12-28T00:19:01;4.80;99.90
51867;DHT22;52862;52.504;13.480;2022-12-28T00:21:29;4.90;99.90
51867;DHT22;52862;52.504;13.480;2022-12-28T00:23:57;4.90;99.90
51867;DHT22;52862;52.504;13.480;2022-12-28T00:26:26;4.90;99.90
51867;DHT22;52862;52.504;13.480;2022-12-28T00:28:53;5.00;99.90
51867;DHT22;52862;52.504;13.480;2022-12-28T00:31:31;5.00;99.90
51867;DHT22;52862;52.504;13.480;2022-12-28T00:33:58;5.00;99.90
51867;DHT22;52862;52.504;13.480;2022-12-28T00:36:25;5.00;99.90
51867;DHT22;52862;52.504;13.480;2022-12-28T00:39:12;5.00;99.90
51867;DHT22;52862;52.504;13.480;2022-12-28T00:41:38;5.00;99.90
51867;DHT22;52862;52.504;13.480;2022-12-28T00:44:05;5.00;99.90
51867;DHT22;52862;52.504;13.480;2022-12-28T00:46:32;5.00;99.90
51867;DHT22;52862;52.504;13.480;2022-12-28T00:48:59;5.00;99.90
51867;DHT22;52862;52.504;13.480;2022-12-28T00:51:26;5.00;99.90
51867;DHT22;52862;52.504;13.480;2022-12-28T00:53:53;5.00;99.90
51867;DHT22;52862;52.504;13.480;2022-12-28T00:56:21;5.00;99.90
51867;DHT22;52862;52.504;13.480;2022-12-28T00:58:48;5.10;99.90
51867;DHT22;52862;52.504;13.480;2022-12-28T01:01:17;5.00;99.90
51867;DHT22;52862;52.504;13.480;2022-12-28T01:03:46;5.10;99.90
51867;DHT22;52862;52.504;13.480;2022-12-28T01:06:15;5.10;99.90
51867;DHT22;52862;52.504;13.480;2022-12-28T01:08:42;5.10;99.90
51867;DHT22;52862;52.504;13.480;2022-12-28T01:11:10;5.20;99.90
51867;DHT22;52862;52.504;13.480;2022-12-28T01:13:37;5.20;99.90
51867;DHT22;52862;52.504;13.480;2022-12-28T01:16:11;5.30;99.90
51867;DHT22;52862;52.504;13.480;2022-12-28T01:18:38;5.20;99.90
51867;DHT22;52862;52.504;13.480;2022-12-28T01:21:13;5.20;99.90
51867;DHT22;52862;52.504;13.480;2022-12-28T01:23:41;5.20;99.90
51867;DHT22;52862;52.504;13.480;2022-12-28T01:26:08;5.20;99.90
51867;DHT22;52862;52.504;13.480;2022-12-28T01:28:35;5.20;99.90
51867;DHT22;52862;52.504;13.480;2022-12-28T01:31:03;5.20;99.90
51867;DHT22;52862;52.504;13.480;2022-12-28T01:33:30;5.20;99.90
51867;DHT22;52862;52.504;13.480;2022-12-28T01:35:57;4.20;99.90
51867;DHT22;52862;52.504;13.480;2022-12-28T01:38:24;5.20;99.90
51867;DHT22;52862;52.504;13.480;2022-12-28T01:40:51;5.20;99.90
51867;DHT22;52862;52.504;13.480;2022-12-28T01:43:18;4.90;99.90
51867;DHT22;52862;52.504;13.480;2022-12-28T01:45:55;5.20;99.90
51867;DHT22;52862;52.504;13.480;2022-12-28T01:48:24;5.50;99.90
51867;DHT22;52862;52.504;13.480;2022-12-28T01:50:51;5.20;99.90
51867;DHT22;52862;52.504;13.480;2022-12-28T01:53:19;5.20;99.90
51867;DHT22;52862;52.504;13.480;2022-12-28T01:55:47;5.20;99.90
51867;DHT22;52862;52.504;13.480;2022-12-28T01:58:17;5.20;99.90
51867;DHT22;52862;52.504;13.480;2022-12-28T02:00:47;5.10;99.90
51867;DHT22;52862;52.504;13.480;2022-12-28T02:03:16;5.30;99.90
51867;DHT22;52862;52.504;13.480;2022-12-28T02:05:46;5.10;99.90
51867;DHT22;52862;52.504;13.480;2022-12-28T02:08:19;5.10;99.90
51867;DHT22;52862;52.504;13.480;2022-12-28T02:10:49;5.00;99.90
51867;DHT22;52862;52.504;13.480;2022-12-28T02:13:17;5.00;99.90
51867;DHT22;52862;52.504;13.480;2022-12-28T02:15:45;5.00;99.90
51867;DHT22;52862;52.504;13.480;2022-12-28T02:18:13;4.90;99.90
51867;DHT22;52862;52.504;13.480;2022-12-28T02:20:48;4.90;99.90
51867;DHT22;52862;52.504;13.480;2022-12-28T02:23:40;4.90;99.90
51867;DHT22;52862;52.504;13.480;2022-12-28T02:26:39;6.00;99.90
51867;DHT22;52862;52.504;13.480;2022-12-28T02:32:17;4.90;99.90
51867;DHT22;52862;52.504;13.480;2022-12-28T02:34:58;4.80;99.90
51867;DHT22;52862;52.504;13.480;2022-12-28T02:37:31;4.80;99.90
51867;DHT22;52862;52.504;13.480;2022-12-28T02:40:02;4.70;99.90
51867;DHT22;52862;52.504;13.480;2022-12-28T02:42:30;4.80;99.90
51867;DHT22;52862;52.504;13.480;2022-12-28T02:45:00;4.70;99.90
51867;DHT22;52862;52.504;13.480;2022-12-28T02:47:45;4.70;99.90
51867;DHT22;52862;52.504;13.480;2022-12-28T02:50:35;4.80;99.90
51867;DHT22;52862;52.504;13.480;2022-12-28T02:53:22;4.60;99.90
51867;DHT22;52862;52.504;13.480;2022-12-28T02:56:00;4.60;99.90
51867;DHT22;52862;52.504;13.480;2022-12-28T02:59:11;4.60;99.90
51867;DHT22;52862;52.504;13.480;2022-12-28T03:02:13;4.60;99.90
51867;DHT22;52862;52.504;13.480;2022-12-28T03:04:57;4.60;99.90
51867;DHT22;52862;52.504;13.480;2022-12-28T03:07:34;4.60;99.90
51867;DHT22;52862;52.504;13.480;2022-12-28T03:10:24;4.50;99.90
51867;DHT22;52862;52.504;13.480;2022-12-28T03:12:56;4.50;99.90
51867;DHT22;52862;52.504;13.480;2022-12-28T03:15:29;4.50;99.90
51867;DHT22;52862;52.504;13.480;2022-12-28T03:18:01;4.50;99.90
51867;DHT22;52862;52.504;13.480;2022-12-28T03:20:49;4.50;99.90
51867;DHT22;52862;52.504;13.480;2022-12-28T03:23:36;4.50;99.90
51867;DHT22;52862;52.504;13.480;2022-12-28T03:26:23;4.50;99.90
51867;DHT22;52862;52.504;13.480;2022-12-28T03:29:09;4.50;99.90
51867;DHT22;52862;52.504;13.480;2022-12-28T03:31:56;4.50;99.90
51867;DHT22;52862;52.504;13.480;2022-12-28T03:34:23;4.50;99.90
51867;DHT22;52862;52.504;13.480;2022-12-28T03:36:55;4.50;99.90
51867;DHT22;52862;52.504;13.480;2022-12-28T03:39:31;4.10;99.90
51867;DHT22;52862;52.504;13.480;2022-12-28T03:42:03;4.50;99.90
51867;DHT22;52862;52.504;13.480;2022-12-28T03:44:54;4.10;99.90
51867;DHT22;52862;52.504;13.480;2022-12-28T03:47:25;4.50;99.90
51867;DHT22;52862;52.504;13.480;2022-12-28T03:49:53;4.40;99.90
51867;DHT22;52862;52.504;13.480;2022-12-28T03:52:20;4.40;99.90
51867;DHT22;52862;52.504;13.480;2022-12-28T03:54:47;4.40;99.90
51867;DHT22;52862;52.504;13.480;2022-12-28T03:57:14;4.40;99.90
51867;DHT22;52862;52.504;13.480;2022-12-28T03:59:42;4.40;99.90
51867;DHT22;52862;52.504;13.480;2022-12-28T04:02:08;4.40;99.90
51867;DHT22;52862;52.504;13.480;2022-12-28T04:04:35;4.40;99.90
51867;DHT22;52862;52.504;13.480;2022-12-28T04:07:02;4.40;99.90
51867;DHT22;52862;52.504;13.480;2022-12-28T04:09:29;4.40;99.90
51867;DHT22;52862;52.504;13.480;2022-12-28T04:11:57;4.40;99.90
51867;DHT22;52862;52.504;13.480;2022-12-28T04:14:24;4.40;99.90
51867;DHT22;52862;52.504;13.480;2022-12-28T04:16:51;4.50;99.90
51867;DHT22;52862;52.504;13.480;2022-12-28T04:19:17;4.40;99.90
51867;DHT22;52862;52.504;13.480;2022-12-28T04:21:44;4.40;99.90
51867;DHT22;52862;52.504;13.480;2022-12-28T04:24:13;4.40;99.90
51867;DHT22;52862;52.504;13.480;2022-12-28T04:26:40;4.40;99.90
51867;DHT22;52862;52.504;13.480;2022-12-28T04:29:07;4.40;99.90
51867;DHT22;52862;52.504;13.480;2022-12-28T04:31:34;4.40;99.90
51867;DHT22;52862;52.504;13.480;2022-12-28T04:34:01;4.30;99.90
51867;DHT22;52862;52.504;13.480;2022-12-28T04:36:27;4.40;99.90
51867;DHT22;52862;52.504;13.480;2022-12-28T04:38:54;4.40;99.90
51867;DHT22;52862;52.504;13.480;2022-12-28T04:41:23;4.40;99.90
51867;DHT22;52862;52.504;13.480;2022-12-28T04:43:50;2.70;99.90
51867;DHT22;52862;52.504;13.480;2022-12-28T04:46:17;4.40;99.90
51867;DHT22;52862;52.504;13.480;2022-12-28T04:48:43;4.40;99.90
51867;DHT22;52862;52.504;13.480;2022-12-28T04:51:15;4.50;99.90
51867;DHT22;52862;52.504;13.480;2022-12-28T04:53:42;4.40;99.90
51867;DHT22;52862;52.504;13.480;2022-12-28T04:56:10;4.50;99.90
51867;DHT22;52862;52.504;13.480;2022-12-28T04:58:38;4.40;99.90
51867;DHT22;52862;52.504;13.480;2022-12-28T05:01:06;4.50;99.90
51867;DHT22;52862;52.504;13.480;2022-12-28T05:03:34;4.50;99.90
51867;DHT22;52862;52.504;13.480;2022-12-28T05:06:01;4.50;99.90
51867;DHT22;52862;52.504;13.480;2022-12-28T05:08:30;4.50;99.90
51867;DHT22;52862;52.504;13.480;2022-12-28T05:10:58;5.20;99.90
51867;DHT22;52862;52.504;13.480;2022-12-28T05:13:25;4.50;99.90
51867;DHT22;52862;52.504;13.480;2022-12-28T05:15:53;4.60;99.90
51867;DHT22;52862;52.504;13.480;2022-12-28T05:18:19;4.50;99.90
51867;DHT22;52862;52.504;13.480;2022-12-28T05:20:46;4.60;99.90
51867;DHT22;52862;52.504;13.480;2022-12-28T05:23:13;4.50;99.90
51867;DHT22;52862;52.504;13.480;2022-12-28T05:25:39;4.50;99.90
51867;DHT22;52862;52.504;13.480;2022-12-28T05:28:06;4.50;99.90
51867;DHT22;52862;52.504;13.480;2022-12-28T05:30:33;4.50;99.90
51867;DHT22;52862;52.504;13.480;2022-12-28T05:33:00;4.60;99.90
51867;DHT22;52862;52.504;13.480;2022-12-28T05:35:27;4.50;99.90
51867;DHT22;52862;52.504;13.480;2022-12-28T05:37:53;4.60;99.90
51867;DHT22;52862;52.504;13.480;2022-12-28T05:40:20;4.50;99.90
51867;DHT22;52862;52.504;13.480;2022-12-28T05:42:46;4.50;99.90
51867;DHT22;52862;52.504;13.480;2022-12-28T05:45:17;4.60;99.90
51867;DHT22;52862;52.504;13.480;2022-12-28T05:47:44;4.60;99.90
51867;DHT22;52862;52.504;13.480;2022-12-28T05:50:11;4.60;99.90
51867;DHT22;52862;52.504;13.480;2022-12-28T05:52:38;4.50;99.90
51867;DHT22;52862;52.504;13.480;2022-12-28T05:55:05;4.50;99.90
51867;DHT22;52862;52.504;13.480;2022-12-28T05:57:32;4.60;99.90
51867;DHT22;52862;52.504;13.480;2022-12-28T05:59:58;4.50;99.90
51867;DHT22;52862;52.504;13.480;2022-12-28T06:02:25;4.60;99.90
51867;DHT22;52862;52.504;13.480;2022-12-28T06:04:52;4.60;99.90
51867;DHT22;52862;52.504;13.480;2022-12-28T06:07:20;4.60;99.90
51867;DHT22;52862;52.504;13.480;2022-12-28T06:09:48;4.60;99.90
51867;DHT22;52862;52.504;13.480;2022-12-28T06:12:15;4.60;99.90
51867;DHT22;52862;52.504;13.480;2022-12-28T06:14:41;4.60;99.90
51867;DHT22;52862;52.504;13.480;2022-12-28T06:17:08;4.60;99.90
51867;DHT22;52862;52.504;13.480;2022-12-28T06:19:35;4.60;99.90
51867;DHT22;52862;52.504;13.480;2022-12-28T06:22:01;4.70;99.90
51867;DHT22;52862;52.504;13.480;2022-12-28T06:24:29;4.70;99.90
51867;DHT22;52862;52.504;13.480;2022-12-28T06:26:55;4.30;99.90
51867;DHT22;52862;52.504;13.480;2022-12-28T06:29:22;4.50;99.90
51867;DHT22;52862;52.504;13.480;2022-12-28T06:31:49;4.80;99.90
51867;DHT22;52862;52.504;13.480;2022-12-28T06:34:16;4.70;99.90
51867;DHT22;52862;52.504;13.480;2022-12-28T06:36:44;4.80;99.90
51867;DHT22;52862;52.504;13.480;2022-12-28T06:39:13;4.90;99.90
51867;DHT22;52862;52.504;13.480;2022-12-28T06:41:40;4.90;99.90
51867;DHT22;52862;52.504;13.480;2022-12-28T06:44:08;4.90;99.90
51867;DHT22;52862;52.504;13.480;2022-12-28T06:46:36;5.00;99.90
51867;DHT22;52862;52.504;13.480;2022-12-28T06:49:03;5.00;99.90
51867;DHT22;52862;52.504;13.480;2022-12-28T06:51:31;4.90;99.90
51867;DHT22;52862;52.504;13.480;2022-12-28T06:54:01;4.90;99.90
51867;DHT22;52862;52.504;13.480;2022-12-28T06:56:30;4.90;99.90
51867;DHT22;52862;52.504;13.480;2022-12-28T06:58:58;5.10;99.90
51867;DHT22;52862;52.504;13.480;2022-12-28T07:01:32;4.90;99.90
51867;DHT22;52862;52.504;13.480;2022-12-28T07:04:06;4.80;99.90
51867;DHT22;52862;52.504;13.480;2022-12-28T07:06:34;4.90;99.90
51867;DHT22;52862;52.504;13.480;2022-12-28T07:09:03;4.90;99.90
51867;DHT22;52862;52.504;13.480;2022-12-28T07:11:31;4.90;99.90
51867;DHT22;52862;52.504;13.480;2022-12-28T07:13:58;4.80;99.90
51867;DHT22;52862;52.504;13.480;2022-12-28T07:16:27;4.80;99.90
51867;DHT22;52862;52.504;13.480;2022-12-28T07:18:54;4.90;99.90
51867;DHT22;52862;52.504;13.480;2022-12-28T07:21:23;4.80;99.90
51867;DHT22;52862;52.504;13.480;2022-12-28T07:23:51;4.80;99.90
51867;DHT22;52862;52.504;13.480;2022-12-28T07:26:20;4.80;99.90
51867;DHT22;52862;52.504;13.480;2022-12-28T07:28:48;4.80;99.90
51867;DHT22;52862;52.504;13.480;2022-12-28T07:31:17;4.80;99.90
51867;DHT22;52862;52.504;13.480;2022-12-28T07:33:44;4.80;99.90
51867;DHT22;52862;52.504;13.480;2022-12-28T07:36:14;4.80;99.90
51867;DHT22;52862;52.504;13.480;2022-12-28T07:38:42;4.90;99.90
51867;DHT22;52862;52.504;13.480;2022-12-28T07:41:10;4.90;99.90
51867;DHT22;52862;52.504;13.480;2022-12-28T07:43:38;5.00;99.90
51867;DHT22;52862;52.504;13.480;2022-12-28T07:46:07;5.00;99.90
51867;DHT22;52862;52.504;13.480;2022-12-28T07:48:35;5.00;99.90
51867;DHT22;52862;52.504;13.480;2022-12-28T07:51:07;5.10;99.90
51867;DHT22;52862;52.504;13.480;2022-12-28T07:53:35;5.10;99.90
51867;DHT22;52862;52.504;13.480;2022-12-28T07:56:03;5.10;99.90
51867;DHT22;52862;52.504;13.480;2022-12-28T07:58:30;5.10;99.90
51867;DHT22;52862;52.504;13.480;2022-12-28T08:01:03;5.10;99.90
51867;DHT22;52862;52.504;13.480;2022-12-28T08:03:30;5.10;99.90
51867;DHT22;52862;52.504;13.480;2022-12-28T08:06:03;5.10;99.90
51867;DHT22;52862;52.504;13.480;2022-12-28T08:08:29;5.10;99.90
51867;DHT22;52862;52.504;13.480;2022-12-28T08:11:01;5.20;99.90
51867;DHT22;52862;52.504;13.480;2022-12-28T08:13:29;5.10;99.90
51867;DHT22;52862;52.504;13.480;2022-12-28T08:15:56;5.20;99.90
51867;DHT22;52862;52.504;13.480;2022-12-28T08:18:23;5.20;99.90
51867;DHT22;52862;52.504;13.480;2022-12-28T08:20:49;5.20;99.90
51867;DHT22;52862;52.504;13.480;2022-12-28T08:23:17;5.20;99.90
51867;DHT22;52862;52.504;13.480;2022-12-28T08:25:43;5.30;99.90
51867;DHT22;52862;52.504;13.480;2022-12-28T08:28:10;5.30;99.90
51867;DHT22;52862;52.504;13.480;2022-12-28T08:30:38;5.30;99.90
51867;DHT22;52862;52.504;13.480;2022-12-28T08:33:04;5.50;99.90
51867;DHT22;52862;52.504;13.480;2022-12-28T08:35:31;5.50;99.90
51867;DHT22;52862;52.504;13.480;2022-12-28T08:37:58;5.50;99.90
51867;DHT22;52862;52.504;13.480;2022-12-28T08:40:25;5.60;99.90
51867;DHT22;52862;52.504;13.480;2022-12-28T08:42:56;5.60;99.90
51867;DHT22;52862;52.504;13.480;2022-12-28T08:45:23;5.60;99.90
51867;DHT22;52862;52.504;13.480;2022-12-28T08:47:49;5.60;99.90
51867;DHT22;52862;52.504;13.480;2022-12-28T08:50:16;6.30;99.90
51867;DHT22;52862;52.504;13.480;2022-12-28T08:52:46;4.60;99.90
51867;DHT22;52862;52.504;13.480;2022-12-28T08:55:13;6.10;99.90
51867;DHT22;52862;52.504;13.480;2022-12-28T08:57:41;5.90;99.90
51867;DHT22;52862;52.504;13.480;2022-12-28T09:00:09;5.80;99.90
51867;DHT22;52862;52.504;13.480;2022-12-28T09:02:36;3.50;99.90
51867;DHT22;52862;52.504;13.480;2022-12-28T09:05:03;5.90;99.90
51867;DHT22;52862;52.504;13.480;2022-12-28T09:07:30;5.90;99.90
51867;DHT22;52862;52.504;13.480;2022-12-28T09:09:56;5.90;99.90
51867;DHT22;52862;52.504;13.480;2022-12-28T09:12:23;6.00;99.90
51867;DHT22;52862;52.504;13.480;2022-12-28T09:14:50;6.10;99.90
51867;DHT22;52862;52.504;13.480;2022-12-28T09:17:17;6.10;99.90
51867;DHT22;52862;52.504;13.480;2022-12-28T09:19:44;6.10;99.90
51867;DHT22;52862;52.504;13.480;2022-12-28T09:22:11;6.10;99.90
51867;DHT22;52862;52.504;13.480;2022-12-28T09:24:37;6.10;99.90
51867;DHT22;52862;52.504;13.480;2022-12-28T09:27:04;6.20;99.90
51867;DHT22;52862;52.504;13.480;2022-12-28T09:29:31;7.00;99.90
51867;DHT22;52862;52.504;13.480;2022-12-28T09:31:58;5.90;99.90
51867;DHT22;52862;52.504;13.480;2022-12-28T09:34:26;6.20;99.90
51867;DHT22;52862;52.504;13.480;2022-12-28T09:37:03;6.00;99.90
51867;DHT22;52862;52.504;13.480;2022-12-28T09:39:30;6.20;99.90
51867;DHT22;52862;52.504;13.480;2022-12-28T09:41:58;6.20;99.90
51867;DHT22;52862;52.504;13.480;2022-12-28T09:44:56;6.20;99.90
51867;DHT22;52862;52.504;13.480;2022-12-28T09:47:32;6.20;99.90
51867;DHT22;52862;52.504;13.480;2022-12-28T09:50:19;6.90;99.90
51867;DHT22;52862;52.504;13.480;2022-12-28T09:53:00;6.30;99.90
51867;DHT22;52862;52.504;13.480;2022-12-28T09:55:31;6.50;99.90
51867;DHT22;52862;52.504;13.480;2022-12-28T09:57:58;6.40;99.90
51867;DHT22;52862;52.504;13.480;2022-12-28T10:00:32;6.50;99.90
51867;DHT22;52862;52.504;13.480;2022-12-28T10:03:08;6.50;99.90
51867;DHT22;52862;52.504;13.480;2022-12-28T10:05:36;6.50;99.90
51867;DHT22;52862;52.504;13.480;2022-12-28T10:08:04;6.60;99.90
51867;DHT22;52862;52.504;13.480;2022-12-28T10:10:31;6.60;99.90
51867;DHT22;52862;52.504;13.480;2022-12-28T10:13:06;6.60;99.90
51867;DHT22;52862;52.504;13.480;2022-12-28T10:15:57;6.60;99.90
51867;DHT22;52862;52.504;13.480;2022-12-28T10:18:26;6.70;99.90
51867;DHT22;52862;52.504;13.480;2022-12-28T10:20:55;6.60;99.90
51867;DHT22;52862;52.504;13.480;2022-12-28T10:23:25;6.70;99.90
51867;DHT22;52862;52.504;13.480;2022-12-28T10:25:54;6.80;99.90
51867;DHT22;52862;52.504;13.480;2022-12-28T10:28:24;6.80;99.90
51867;DHT22;52862;52.504;13.480;2022-12-28T10:31:03;6.80;99.90
51867;DHT22;52862;52.504;13.480;2022-12-28T10:33:31;6.80;99.90
51867;DHT22;52862;52.504;13.480;2022-12-28T10:35:58;6.80;99.90
51867;DHT22;52862;52.504;13.480;2022-12-28T10:38:27;6.90;99.90
51867;DHT22;52862;52.504;13.480;2022-12-28T10:40:58;7.00;99.90
51867;DHT22;52862;52.504;13.480;2022-12-28T10:43:27;7.00;99.90
51867;DHT22;52862;52.504;13.480;2022-12-28T10:45:56;6.80;99.90
51867;DHT22;52862;52.504;13.480;2022-12-28T10:48:27;6.90;99.90
51867;DHT22;52862;52.504;13.480;2022-12-28T10:50:57;6.80;99.90
51867;DHT22;52862;52.504;13.480;2022-12-28T10:53:28;6.80;99.90
51867;DHT22;52862;52.504;13.480;2022-12-28T10:56:17;6.80;99.90
51867;DHT22;52862;52.504;13.480;2022-12-28T10:58:45;6.90;99.90
51867;DHT22;52862;52.504;13.480;2022-12-28T11:01:17;6.90;99.90
51867;DHT22;52862;52.504;13.480;2022-12-28T11:03:56;7.00;99.90
51867;DHT22;52862;52.504;13.480;2022-12-28T11:06:25;7.00;99.90
51867;DHT22;52862;52.504;13.480;2022-12-28T11:09:13;7.20;99.90
51867;DHT22;52862;52.504;13.480;2022-12-28T11:11:41;7.20;99.90
51867;DHT22;52862;52.504;13.480;2022-12-28T11:14:14;7.30;99.90
51867;DHT22;52862;52.504;13.480;2022-12-28T11:16:41;7.30;99.90
51867;DHT22;52862;52.504;13.480;2022-12-28T11:19:09;7.70;99.90
51867;DHT22;52862;52.504;13.480;2022-12-28T11:21:38;7.70;99.90
51867;DHT22;52862;52.504;13.480;2022-12-28T11:24:09;7.40;99.90
51867;DHT22;52862;52.504;13.480;2022-12-28T11:26:37;7.50;99.90
51867;DHT22;52862;52.504;13.480;2022-12-28T11:29:05;7.50;99.90
51867;DHT22;52862;52.504;13.480;2022-12-28T11:31:33;7.10;99.90
51867;DHT22;52862;52.504;13.480;2022-12-28T11:34:04;7.50;99.90
51867;DHT22;52862;52.504;13.480;2022-12-28T11:36:37;7.60;99.90
51867;DHT22;52862;52.504;13.480;2022-12-28T11:39:28;7.60;99.90
51867;DHT22;52862;52.504;13.480;2022-12-28T11:41:56;7.70;99.90
51867;DHT22;52862;52.504;13.480;2022-12-28T11:44:51;7.90;99.90
51867;DHT22;52862;52.504;13.480;2022-12-28T11:47:35;7.70;99.90
51867;DHT22;52862;52.504;13.480;2022-12-28T11:50:47;7.90;99.90
51867;DHT22;52862;52.504;13.480;2022-12-28T11:53:49;7.90;99.90
51867;DHT22;52862;52.504;13.480;2022-12-28T11:56:17;8.80;99.90
51867;DHT22;52862;52.504;13.480;2022-12-28T11:58:46;8.00;99.90
51867;DHT22;52862;52.504;13.480;2022-12-28T12:01:47;8.00;99.90
51867;DHT22;52862;52.504;13.480;2022-12-28T12:04:25;8.00;99.90
51867;DHT22;52862;52.504;13.480;2022-12-28T12:07:43;8.00;99.90
51867;DHT22;52862;52.504;13.480;2022-12-28T12:10:27;8.10;99.90
51867;DHT22;52862;52.504;13.480;2022-12-28T12:12:55;8.00;99.90
51867;DHT22;52862;52.504;13.480;2022-12-28T12:15:33;8.10;99.90
51867;DHT22;52862;52.504;13.480;2022-12-28T12:18:05;8.20;99.90
51867;DHT22;52862;52.504;13.480;2022-12-28T12:20:45;8.30;99.90
51867;DHT22;52862;52.504;13.480;2022-12-28T12:23:24;8.40;99.90
51867;DHT22;52862;52.504;13.480;2022-12-28T12:25:53;8.40;99.90
51867;DHT22;52862;52.504;13.480;2022-12-28T12:28:36;8.40;99.90
51867;DHT22;52862;52.504;13.480;2022-12-28T12:31:06;8.40;99.90
51867;DHT22;52862;52.504;13.480;2022-12-28T12:33:35;8.70;99.90
51867;DHT22;52862;52.504;13.480;2022-12-28T12:36:13;8.50;99.90
51867;DHT22;52862;52.504;13.480;2022-12-28T12:39:09;8.60;99.90
51867;DHT22;52862;52.504;13.480;2022-12-28T12:41:45;8.80;99.90
51867;DHT22;52862;52.504;13.480;2022-12-28T12:44:26;8.80;99.90
51867;DHT22;52862;52.504;13.480;2022-12-28T12:47:36;8.90;99.90
51867;DHT22;52862;52.504;13.480;2022-12-28T12:50:35;8.70;99.90
51867;DHT22;52862;52.504;13.480;2022-12-28T12:53:21;8.70;99.90
51867;DHT22;52862;52.504;13.480;2022-12-28T12:55:59;8.70;99.90
51867;DHT22;52862;52.504;13.480;2022-12-28T12:58:32;8.70;99.90
51867;DHT22;52862;52.504;13.480;2022-12-28T13:01:16;8.90;99.90
51867;DHT22;52862;52.504;13.480;2022-12-28T13:03:49;9.10;99.90
51867;DHT22;52862;52.504;13.480;2022-12-28T13:06:17;9.30;99.90
51867;DHT22;52862;52.504;13.480;2022-12-28T13:08:47;9.40;99.90
51867;DHT22;52862;52.504;13.480;2022-12-28T13:11:15;9.60;99.90
51867;DHT22;52862;52.504;13.480;2022-12-28T13:13:45;10.30;99.90
51867;DHT22;52862;52.504;13.480;2022-12-28T13:16:16;11.80;99.90
51867;DHT22;52862;52.504;13.480;2022-12-28T13:18:52;12.30;99.90
51867;DHT22;52862;52.504;13.480;2022-12-28T13:21:20;11.60;99.90
51867;DHT22;52862;52.504;13.480;2022-12-28T13:23:48;12.20;99.90
51867;DHT22;52862;52.504;13.480;2022-12-28T13:26:15;12.00;99.90
51867;DHT22;52862;52.504;13.480;2022-12-28T13:28:49;12.00;99.90
51867;DHT22;52862;52.504;13.480;2022-12-28T13:31:18;12.10;99.90
51867;DHT22;52862;52.504;13.480;2022-12-28T13:33:57;11.70;99.90
51867;DHT22;52862;52.504;13.480;2022-12-28T13:36:24;12.50;99.90
51867;DHT22;52862;52.504;13.480;2022-12-28T13:39:10;12.80;99.90
51867;DHT22;52862;52.504;13.480;2022-12-28T13:41:41;12.50;99.90
51867;DHT22;52862;52.504;13.480;2022-12-28T13:44:27;12.20;99.90
51867;DHT22;52862;52.504;13.480;2022-12-28T13:47:00;10.60;99.90
51867;DHT22;52862;52.504;13.480;2022-12-28T13:49:27;10.50;99.90
51867;DHT22;52862;52.504;13.480;2022-12-28T13:51:56;10.20;99.90
51867;DHT22;52862;52.504;13.480;2022-12-28T13:54:23;9.90;99.90
51867;DHT22;52862;52.504;13.480;2022-12-28T13:56:52;9.50;99.90
51867;DHT22;52862;52.504;13.480;2022-12-28T13:59:41;9.50;99.90
51867;DHT22;52862;52.504;13.480;2022-12-28T14:02:13;9.20;99.90
51867;DHT22;52862;52.504;13.480;2022-12-28T14:04:40;9.00;99.90
51867;DHT22;52862;52.504;13.480;2022-12-28T14:07:19;8.90;99.90
51867;DHT22;52862;52.504;13.480;2022-12-28T14:09:47;8.90;99.90
51867;DHT22;52862;52.504;13.480;2022-12-28T14:12:15;8.80;99.90
51867;DHT22;52862;52.504;13.480;2022-12-28T14:14:44;8.90;99.90
51867;DHT22;52862;52.504;13.480;2022-12-28T14:17:11;8.80;99.90
51867;DHT22;52862;52.504;13.480;2022-12-28T14:19:38;8.80;99.90
51867;DHT22;52862;52.504;13.480;2022-12-28T14:22:24;8.70;99.90
51867;DHT22;52862;52.504;13.480;2022-12-28T14:25:03;8.70;99.90
51867;DHT22;52862;52.504;13.480;2022-12-28T14:27:32;8.70;99.90
51867;DHT22;52862;52.504;13.480;2022-12-28T14:30:04;8.40;99.90
51867;DHT22;52862;52.504;13.480;2022-12-28T14:32:32;8.70;99.90
51867;DHT22;52862;52.504;13.480;2022-12-28T14:35:15;8.70;99.90
51867;DHT22;52862;52.504;13.480;2022-12-28T14:37:43;8.60;99.90
51867;DHT22;52862;52.504;13.480;2022-12-28T14:40:25;8.20;99.90
51867;DHT22;52862;52.504;13.480;2022-12-28T14:42:53;8.60;99.90
51867;DHT22;52862;52.504;13.480;2022-12-28T14:45:29;8.50;99.90
51867;DHT22;52862;52.504;13.480;2022-12-28T14:47:59;8.60;99.90
51867;DHT22;52862;52.504;13.480;2022-12-28T14:50:29;8.50;99.90
51867;DHT22;52862;52.504;13.480;2022-12-28T14:53:08;8.50;99.90
51867;DHT22;52862;52.504;13.480;2022-12-28T14:55:41;8.40;99.90
51867;DHT22;52862;52.504;13.480;2022-12-28T14:58:21;8.30;99.90
51867;DHT22;52862;52.504;13.480;2022-12-28T15:00:57;8.50;99.90
51867;DHT22;52862;52.504;13.480;2022-12-28T15:03:24;8.40;99.90
51867;DHT22;52862;52.504;13.480;2022-12-28T15:05:54;8.30;99.90
51867;DHT22;52862;52.504;13.480;2022-12-28T15:08:21;8.30;99.90
51867;DHT22;52862;52.504;13.480;2022-12-28T15:10:50;8.30;99.90
51867;DHT22;52862;52.504;13.480;2022-12-28T15:13:18;8.30;99.90
51867;DHT22;52862;52.504;13.480;2022-12-28T15:15:52;8.30;99.90
51867;DHT22;52862;52.504;13.480;2022-12-28T15:18:20;8.30;99.90
51867;DHT22;52862;52.504;13.480;2022-12-28T15:20:46;8.30;99.90
51867;DHT22;52862;52.504;13.480;2022-12-28T15:23:13;8.30;99.90
51867;DHT22;52862;52.504;13.480;2022-12-28T15:25:40;8.20;99.90
51867;DHT22;52862;52.504;13.480;2022-12-28T15:28:07;8.30;99.90
51867;DHT22;52862;52.504;13.480;2022-12-28T15:30:34;8.20;99.90
51867;DHT22;52862;52.504;13.480;2022-12-28T15:33:04;8.40;99.90
51867;DHT22;52862;52.504;13.480;2022-12-28T15:35:31;8.30;99.90
51867;DHT22;52862;52.504;13.480;2022-12-28T15:37:59;8.30;99.90
51867;DHT22;52862;52.504;13.480;2022-12-28T15:40:25;8.30;99.90
51867;DHT22;52862;52.504;13.480;2022-12-28T15:42:52;8.50;99.90
51867;DHT22;52862;52.504;13.480;2022-12-28T15:45:19;8.30;99.90
51867;DHT22;52862;52.504;13.480;2022-12-28T15:47:45;8.30;99.90
51867;DHT22;52862;52.504;13.480;2022-12-28T15:50:12;8.30;99.90
51867;DHT22;52862;52.504;13.480;2022-12-28T15:52:39;8.30;99.90
51867;DHT22;52862;52.504;13.480;2022-12-28T15:55:06;8.30;99.90
51867;DHT22;52862;52.504;13.480;2022-12-28T15:57:33;8.20;99.90
51867;DHT22;52862;52.504;13.480;2022-12-28T16:00:00;8.30;99.90